createdAt,value
2024-02-02T00:00:40.323Z,84.10
2024-02-02T00:03:08.995Z,74.83
2024-02-02T00:05:38.859Z,79.10
2024-02-02T00:08:07.741Z,78.57
2024-02-02T00:10:36.404Z,75.80
2024-02-02T00:13:04.848Z,76.03
2024-02-02T00:15:33.325Z,79.33
2024-02-02T00:18:01.821Z,79.53
2024-02-02T00:20:30.338Z,79.03
2024-02-02T00:23:00.203Z,77.67
2024-02-02T00:25:28.771Z,75.63
2024-02-02T00:27:57.191Z,76.03
2024-02-02T00:30:25.663Z,76.43
2024-02-02T00:32:54.240Z,74.67
2024-02-02T00:35:22.757Z,78.57
2024-02-02T00:37:51.195Z,76.20
2024-02-02T00:40:21.503Z,80.37
2024-02-02T00:42:49.941Z,79.73
2024-02-02T00:45:18.555Z,77.87
2024-02-02T00:47:47.127Z,81.00
2024-02-02T00:50:15.673Z,84.30
2024-02-02T00:52:44.134Z,80.87
2024-02-02T00:55:12.750Z,77.77
2024-02-02T00:57:42.649Z,81.90
2024-02-02T01:00:12.401Z,77.90
2024-02-02T01:02:41.842Z,80.70
2024-02-02T01:05:10.734Z,84.80
2024-02-02T01:07:39.298Z,82.37
2024-02-02T01:10:07.951Z,80.03
2024-02-02T01:12:36.700Z,81.80
2024-02-02T01:15:08.470Z,83.30
2024-02-02T01:17:36.930Z,80.03
2024-02-02T01:20:05.578Z,81.20
2024-02-02T01:22:34.062Z,84.93
2024-02-02T01:25:02.727Z,85.80
2024-02-02T01:27:31.214Z,87.10
2024-02-02T01:29:59.770Z,89.90
2024-02-02T01:32:29.582Z,89.10
2024-02-02T01:34:58.033Z,90.70
2024-02-02T01:37:26.521Z,95.27
2024-02-02T01:39:54.954Z,91.07
2024-02-02T01:42:23.581Z,93.03
2024-02-02T01:44:52.675Z,93.80
2024-02-02T01:47:21.160Z,97.20
2024-02-02T01:49:51.058Z,98.70
2024-02-02T01:52:19.655Z,99.77
2024-02-02T01:54:48.206Z,96.43
2024-02-02T01:57:16.779Z,103.57
2024-02-02T01:59:45.300Z,107.90
2024-02-02T02:02:13.707Z,109.03
2024-02-02T02:04:42.486Z,109.23
2024-02-02T02:07:12.688Z,106.70
2024-02-02T02:09:42.256Z,114.67
2024-02-02T02:12:10.715Z,121.60
2024-02-02T02:14:39.346Z,120.07
2024-02-02T02:17:07.920Z,115.10
2024-02-02T02:19:37.393Z,121.50
2024-02-02T02:22:07.898Z,123.03
2024-02-02T02:24:36.506Z,123.67
2024-02-02T02:27:05.163Z,124.13
2024-02-02T02:29:33.649Z,125.87
2024-02-02T02:32:02.134Z,122.33
2024-02-02T02:34:32.657Z,120.90
2024-02-02T02:37:01.252Z,123.93
2024-02-02T02:39:31.815Z,127.33
2024-02-02T02:42:00.340Z,125.83
2024-02-02T02:44:29.023Z,116.27
2024-02-02T02:46:57.438Z,125.83
2024-02-02T02:49:26.015Z,119.00
2024-02-02T02:51:54.579Z,122.80
2024-02-02T02:54:23.073Z,122.07
2024-02-02T02:56:52.951Z,122.87
2024-02-02T02:59:21.447Z,121.43
2024-02-02T03:01:49.910Z,124.17
2024-02-02T03:04:18.544Z,118.17
2024-02-02T03:06:47.161Z,123.30
2024-02-02T03:09:15.689Z,119.87
2024-02-02T03:11:44.113Z,113.43
2024-02-02T03:14:14.047Z,121.83
2024-02-02T03:16:42.515Z,117.53
2024-02-02T03:19:11.032Z,121.57
2024-02-02T03:21:39.553Z,118.40
2024-02-02T03:24:11.929Z,120.93
2024-02-02T03:26:40.718Z,121.40
2024-02-02T03:29:09.144Z,117.17
2024-02-02T03:31:39.005Z,122.83
2024-02-02T03:34:07.503Z,119.03
2024-02-02T03:36:36.043Z,124.17
2024-02-02T03:39:04.580Z,123.80
2024-02-02T03:41:33.140Z,124.80
2024-02-02T03:44:01.564Z,125.40
2024-02-02T03:46:29.987Z,131.47
2024-02-02T03:49:00.718Z,123.17
2024-02-02T03:51:29.245Z,122.37
2024-02-02T03:53:57.731Z,125.43
2024-02-02T03:56:26.520Z,127.90
2024-02-02T03:58:54.929Z,126.43
2024-02-02T04:01:23.398Z,126.63
2024-02-02T04:03:51.949Z,116.50
2024-02-02T04:06:22.567Z,123.90
2024-02-02T04:08:51.060Z,124.77
2024-02-02T04:11:19.683Z,128.37
2024-02-02T04:13:48.084Z,125.57
2024-02-02T04:16:15.519Z,123.00
2024-02-02T04:18:44.190Z,127.73
2024-02-02T04:21:12.750Z,122.47
2024-02-02T04:23:42.586Z,131.87
2024-02-02T04:26:11.103Z,125.03
2024-02-02T04:28:39.599Z,119.23
2024-02-02T04:31:08.114Z,128.63
2024-02-02T04:33:36.740Z,121.50
2024-02-02T04:36:05.772Z,121.10
2024-02-02T04:38:34.299Z,125.17
2024-02-02T04:41:04.129Z,117.83
2024-02-02T04:43:32.623Z,121.00
2024-02-02T04:46:01.077Z,117.33
2024-02-02T04:48:29.672Z,121.63
2024-02-02T04:50:58.715Z,118.03
2024-02-02T04:53:27.135Z,116.17
2024-02-02T04:55:56.241Z,116.90
2024-02-02T04:58:26.237Z,114.57
2024-02-02T05:00:54.689Z,112.27
2024-02-02T05:03:23.175Z,107.70
2024-02-02T05:05:51.685Z,116.60
2024-02-02T05:08:20.237Z,113.70
2024-02-02T05:10:48.668Z,109.97
2024-02-02T05:13:17.082Z,107.93
2024-02-02T05:15:47.226Z,107.50
2024-02-02T05:18:16.155Z,106.73
2024-02-02T05:20:44.677Z,102.67
2024-02-02T05:23:13.098Z,105.60
2024-02-02T05:25:41.850Z,108.23
2024-02-02T05:28:10.411Z,105.53
2024-02-02T05:30:39.035Z,102.90
2024-02-02T05:33:09.104Z,99.20
2024-02-02T05:35:37.573Z,112.07
2024-02-02T05:38:06.163Z,103.50
2024-02-02T05:40:34.622Z,106.67
2024-02-02T05:43:03.121Z,100.63
2024-02-02T05:45:31.631Z,105.23
2024-02-02T05:48:00.279Z,101.40
2024-02-02T05:50:32.511Z,107.07
2024-02-02T05:53:01.000Z,117.40
2024-02-02T05:55:29.512Z,105.87
2024-02-02T05:57:58.402Z,108.13
2024-02-02T06:00:26.876Z,109.43
2024-02-02T06:02:55.356Z,111.03
2024-02-02T06:05:23.820Z,125.97
2024-02-02T06:07:53.698Z,121.70
2024-02-02T06:10:22.128Z,123.30
2024-02-02T06:12:52.088Z,127.60
2024-02-02T06:15:20.617Z,127.83
2024-02-02T06:17:50.778Z,123.33
2024-02-02T06:20:21.026Z,131.83
2024-02-02T06:22:49.479Z,128.83
2024-02-02T06:25:19.875Z,123.43
2024-02-02T06:27:48.328Z,122.23
2024-02-02T06:30:17.357Z,121.17
2024-02-02T06:32:50.097Z,121.37
2024-02-02T06:35:18.608Z,118.60
2024-02-02T06:37:47.029Z,115.30
2024-02-02T06:40:15.517Z,120.27
2024-02-02T06:42:45.322Z,119.57
2024-02-02T06:45:13.794Z,115.03
2024-02-02T06:47:43.810Z,113.17
2024-02-02T06:50:12.618Z,116.57
2024-02-02T06:52:41.036Z,108.00
2024-02-02T06:55:09.848Z,113.43
2024-02-02T06:57:38.366Z,105.37
2024-02-02T07:00:12.091Z,109.90
2024-02-02T07:02:40.599Z,112.37
2024-02-02T07:05:09.294Z,119.47
2024-02-02T07:07:37.712Z,112.00
2024-02-02T07:10:08.460Z,110.87
2024-02-02T07:12:58.037Z,117.80
2024-02-02T07:15:29.811Z,115.00
2024-02-02T07:17:59.427Z,123.47
2024-02-02T07:20:48.871Z,123.63
2024-02-02T07:23:22.687Z,125.13
2024-02-02T07:25:52.962Z,128.70
2024-02-02T07:28:29.303Z,118.57
2024-02-02T07:31:00.412Z,121.37
2024-02-02T07:33:30.104Z,122.33
2024-02-02T07:36:00.274Z,122.57
2024-02-02T07:38:43.885Z,124.37
2024-02-02T07:41:13.344Z,116.83
2024-02-02T07:43:42.014Z,125.93
2024-02-02T07:46:14.391Z,118.27
2024-02-02T07:48:44.908Z,121.70
2024-02-02T07:51:13.609Z,120.53
2024-02-02T07:53:42.228Z,121.67
2024-02-02T07:56:10.730Z,129.90
2024-02-02T07:58:41.063Z,122.10
2024-02-02T08:01:09.566Z,113.10
2024-02-02T08:03:39.873Z,113.53
2024-02-02T08:06:08.767Z,110.93
2024-02-02T08:08:38.061Z,98.00
2024-02-02T08:11:06.709Z,76.10
2024-02-02T08:13:35.915Z,59.07
2024-02-02T08:16:04.458Z,74.33
2024-02-02T08:18:33.882Z,91.43
2024-02-02T08:21:04.660Z,102.50
2024-02-02T08:23:34.143Z,105.77
2024-02-02T08:26:03.250Z,106.43
2024-02-02T08:28:39.557Z,103.97
2024-02-02T08:31:13.944Z,102.87
2024-02-02T08:33:44.489Z,105.60
2024-02-02T08:36:14.866Z,105.63
2024-02-02T08:38:43.335Z,101.27
2024-02-02T08:41:11.931Z,104.13
2024-02-02T08:43:41.130Z,98.37
2024-02-02T08:46:10.634Z,100.60
2024-02-02T08:48:45.733Z,101.83
2024-02-02T08:51:34.522Z,92.90
2024-02-02T08:54:24.578Z,95.40
2024-02-02T08:56:57.054Z,93.17
2024-02-02T08:59:32.037Z,94.20
2024-02-02T09:02:00.452Z,89.23
2024-02-02T09:04:46.705Z,84.10
2024-02-02T09:07:16.914Z,77.07
2024-02-02T09:09:45.471Z,74.70
2024-02-02T09:12:13.986Z,69.20
2024-02-02T09:14:42.800Z,66.27
2024-02-02T09:17:10.250Z,69.70
2024-02-02T09:19:42.767Z,71.03
2024-02-02T09:22:13.836Z,75.47
2024-02-02T09:24:45.276Z,69.30
2024-02-02T09:27:18.091Z,77.83
2024-02-02T09:29:47.337Z,84.80
2024-02-02T09:32:16.718Z,76.93
2024-02-02T09:34:45.372Z,85.47
2024-02-02T09:37:17.736Z,77.37
2024-02-02T09:39:53.349Z,79.40
2024-02-02T09:42:30.676Z,82.13
2024-02-02T09:45:00.901Z,74.30
2024-02-02T09:47:39.495Z,78.67
2024-02-02T09:50:11.862Z,74.50
2024-02-02T09:52:43.606Z,70.57
2024-02-02T09:55:16.278Z,68.07
2024-02-02T09:57:49.017Z,68.37
2024-02-02T10:00:19.258Z,64.90
2024-02-02T10:02:54.627Z,72.47
2024-02-02T10:05:29.066Z,68.50
2024-02-02T10:08:07.319Z,69.87
2024-02-02T10:10:42.721Z,69.30
2024-02-02T10:13:15.288Z,77.47
2024-02-02T10:15:49.114Z,71.60
2024-02-02T10:18:27.149Z,75.17
2024-02-02T10:20:58.209Z,74.07
2024-02-02T10:23:45.293Z,77.20
2024-02-02T10:26:29.712Z,75.20
2024-02-02T10:29:02.790Z,79.97
2024-02-02T10:31:36.700Z,76.27
2024-02-02T10:34:14.019Z,74.93
2024-02-02T10:36:47.529Z,70.90
2024-02-02T10:39:19.132Z,70.63
2024-02-02T10:41:55.421Z,76.03
2024-02-02T10:44:26.851Z,74.53
2024-02-02T10:46:59.984Z,73.10
2024-02-02T10:49:36.299Z,69.33
2024-02-02T10:52:11.569Z,67.57
2024-02-02T10:54:53.506Z,73.68
2024-02-02T10:57:27.922Z,72.33
2024-02-02T11:00:10.999Z,80.93
2024-02-02T11:02:45.511Z,82.97
2024-02-02T11:05:18.232Z,77.63
2024-02-02T11:07:50.273Z,69.00
2024-02-02T11:10:20.524Z,68.13
2024-02-02T11:12:55.017Z,66.87
2024-02-02T11:15:30.057Z,66.50
2024-02-02T11:18:05.102Z,75.03
2024-02-02T11:20:38.814Z,77.27
2024-02-02T11:23:12.959Z,69.87
2024-02-02T11:25:44.697Z,73.60
2024-02-02T11:28:17.866Z,77.40
2024-02-02T11:30:53.665Z,85.17
2024-02-02T11:33:30.141Z,77.77
2024-02-02T11:36:05.298Z,78.03
2024-02-02T11:38:40.750Z,86.50
2024-02-02T11:41:11.512Z,84.93
2024-02-02T11:43:41.935Z,80.10
2024-02-02T11:46:11.505Z,80.40
2024-02-02T11:48:42.072Z,88.17
2024-02-02T11:51:12.521Z,87.00
2024-02-02T11:53:43.851Z,86.13
2024-02-02T11:56:13.759Z,83.30
2024-02-02T11:58:46.251Z,96.00
2024-02-02T12:01:29.787Z,97.67
2024-02-02T12:04:06.330Z,92.10
2024-02-02T12:06:38.028Z,94.93
2024-02-02T12:09:15.983Z,95.60
2024-02-02T12:11:47.249Z,94.43
2024-02-02T12:14:22.590Z,93.93
2024-02-02T12:16:51.867Z,94.60
2024-02-02T12:19:20.968Z,101.53
2024-02-02T12:21:49.694Z,97.63
2024-02-02T12:24:18.572Z,87.53
2024-02-02T12:26:49.662Z,88.03
2024-02-02T12:29:19.685Z,86.27
2024-02-02T12:31:48.773Z,82.90
2024-02-02T12:34:18.176Z,79.77
2024-02-02T12:36:46.794Z,79.63
2024-02-02T12:39:15.375Z,86.97
2024-02-02T12:41:43.846Z,83.47
2024-02-02T12:44:12.369Z,77.83
2024-02-02T12:46:48.883Z,75.43
2024-02-02T12:49:17.573Z,78.33
2024-02-02T12:51:46.603Z,71.90
2024-02-02T12:54:15.151Z,73.17
2024-02-02T12:56:43.710Z,74.33
2024-02-02T12:59:13.494Z,81.27
2024-02-02T13:01:43.853Z,77.50
2024-02-02T13:04:14.555Z,79.80
2024-02-02T13:06:43.976Z,73.27
2024-02-02T13:09:20.494Z,69.37
2024-02-02T13:11:49.608Z,68.87
2024-02-02T13:14:28.844Z,78.97
2024-02-02T13:17:16.013Z,82.23
2024-02-02T13:19:47.214Z,75.87
2024-02-02T13:22:22.855Z,70.67
2024-02-02T13:24:54.292Z,71.47
2024-02-02T13:27:25.765Z,78.10
2024-02-02T13:29:58.395Z,82.10
2024-02-02T13:32:28.255Z,81.17
2024-02-02T13:35:01.566Z,80.80
2024-02-02T13:37:38.043Z,73.83
2024-02-02T13:40:10.967Z,84.90
2024-02-02T13:42:40.807Z,89.33
2024-02-02T13:45:11.738Z,85.73
2024-02-02T13:47:40.981Z,86.20
2024-02-02T13:50:17.330Z,91.70
2024-02-02T13:52:51.201Z,89.17
2024-02-02T13:55:20.497Z,93.57
2024-02-02T13:57:49.954Z,95.90
2024-02-02T14:00:20.443Z,95.63
2024-02-02T14:02:49.159Z,96.53
2024-02-02T14:05:19.029Z,101.30
2024-02-02T14:07:56.100Z,104.17
2024-02-02T14:10:24.564Z,113.20
2024-02-02T14:12:53.066Z,121.87
2024-02-02T14:15:21.869Z,118.30
2024-02-02T14:17:50.354Z,125.13
2024-02-02T14:20:27.444Z,129.87
2024-02-02T14:22:55.909Z,130.17
2024-02-02T14:25:27.936Z,132.40
2024-02-02T14:27:56.570Z,123.87
2024-02-02T14:30:25.024Z,115.17
2024-02-02T14:33:04.958Z,106.73
2024-02-02T14:35:43.763Z,102.70
2024-02-02T14:38:12.213Z,105.37
2024-02-02T14:40:40.625Z,102.93
2024-02-02T14:43:09.209Z,98.30
2024-02-02T14:45:37.954Z,96.30
2024-02-02T14:48:07.388Z,96.20
2024-02-02T14:50:36.688Z,99.10
2024-02-02T14:53:06.920Z,91.87
2024-02-02T14:55:35.336Z,83.83
2024-02-02T14:58:05.483Z,77.73
2024-02-02T15:00:34.655Z,76.50
2024-02-02T15:03:05.036Z,94.00
2024-02-02T15:05:33.612Z,82.80
2024-02-02T15:08:02.181Z,77.93
2024-02-02T15:10:32.061Z,78.30
2024-02-02T15:13:00.546Z,78.60
2024-02-02T15:15:29.180Z,85.80
2024-02-02T15:17:57.639Z,82.47
2024-02-02T15:20:26.073Z,93.43
2024-02-02T15:22:54.521Z,92.63
2024-02-02T15:25:22.967Z,96.40
2024-02-02T15:27:52.932Z,100.70
2024-02-02T15:30:22.212Z,100.63
2024-02-02T15:32:50.706Z,107.97
2024-02-02T15:35:19.191Z,112.03
2024-02-02T15:37:47.736Z,122.87
2024-02-02T15:40:18.129Z,114.80
2024-02-02T15:42:50.663Z,107.37
2024-02-02T15:45:20.528Z,109.43
2024-02-02T15:47:51.865Z,114.37
2024-02-02T15:50:20.904Z,118.07
2024-02-02T15:52:49.340Z,116.20
2024-02-02T15:55:18.194Z,125.70
2024-02-02T15:57:51.857Z,126.00
2024-02-02T16:00:23.718Z,124.53
2024-02-02T16:02:52.947Z,124.60
2024-02-02T16:05:22.481Z,124.83
2024-02-02T16:07:51.242Z,119.57
2024-02-02T16:10:19.736Z,121.70
2024-02-02T16:12:48.184Z,118.53
2024-02-02T16:15:16.735Z,113.90
2024-02-02T16:17:46.717Z,110.10
2024-02-02T16:20:15.229Z,110.70
2024-02-02T16:22:44.225Z,105.67
2024-02-02T16:25:13.340Z,102.90
2024-02-02T16:27:42.059Z,96.47
2024-02-02T16:30:12.124Z,103.47
2024-02-02T16:32:40.716Z,97.60
2024-02-02T16:35:10.959Z,100.10
2024-02-02T16:37:40.688Z,103.23
2024-02-02T16:40:09.964Z,96.27
2024-02-02T16:42:41.234Z,101.20
2024-02-02T16:45:10.446Z,93.70
2024-02-02T16:47:39.561Z,99.63
2024-02-02T16:50:08.524Z,95.20
2024-02-02T16:52:38.445Z,93.33
2024-02-02T16:55:07.197Z,100.53
2024-02-02T16:57:35.735Z,102.53
2024-02-02T17:00:06.156Z,110.00
2024-02-02T17:02:34.722Z,105.87
2024-02-02T17:05:03.155Z,111.20
2024-02-02T17:07:31.818Z,123.33
2024-02-02T17:10:01.758Z,134.10
2024-02-02T17:12:30.240Z,132.07
2024-02-02T17:14:58.893Z,132.77
2024-02-02T17:17:27.404Z,138.60
2024-02-02T17:19:55.959Z,145.33
2024-02-02T17:22:24.522Z,161.03
2024-02-02T17:24:53.043Z,151.23
2024-02-02T17:27:23.219Z,153.70
2024-02-02T17:29:51.670Z,147.13
2024-02-02T17:32:22.220Z,149.00
2024-02-02T17:34:50.832Z,149.13
2024-02-02T17:37:19.382Z,150.37
2024-02-02T17:39:48.749Z,152.50
2024-02-02T17:42:17.443Z,155.87
2024-02-02T17:44:47.257Z,147.57
2024-02-02T17:47:15.700Z,151.10
2024-02-02T17:49:45.907Z,149.97
2024-02-02T17:52:17.969Z,151.83
2024-02-02T17:54:46.494Z,145.37
2024-02-02T17:57:15.012Z,148.80
2024-02-02T17:59:43.577Z,141.87
2024-02-02T18:02:13.422Z,141.67
2024-02-02T18:04:42.035Z,138.23
2024-02-02T18:07:12.812Z,135.47
2024-02-02T18:09:41.818Z,137.07
2024-02-02T18:12:13.014Z,137.70
2024-02-02T18:14:41.750Z,133.47
2024-02-02T18:17:15.372Z,137.43
2024-02-02T18:19:45.216Z,134.07
2024-02-02T18:22:13.684Z,129.87
2024-02-02T18:24:42.253Z,129.27
2024-02-02T18:27:11.041Z,120.60
2024-02-02T18:29:39.496Z,124.63
2024-02-02T18:32:08.995Z,129.50
2024-02-02T18:34:39.107Z,122.40
2024-02-02T18:37:09.053Z,129.27
2024-02-02T18:39:38.022Z,124.50
2024-02-02T18:42:08.271Z,130.37
2024-02-02T18:44:36.796Z,121.33
2024-02-02T18:47:05.396Z,119.60
2024-02-02T18:49:33.990Z,116.13
2024-02-02T18:52:02.502Z,114.90
2024-02-02T18:54:32.404Z,116.80
2024-02-02T18:57:00.885Z,119.50
2024-02-02T18:59:29.360Z,117.43
2024-02-02T19:01:57.960Z,120.77
2024-02-02T19:04:26.601Z,114.73
2024-02-02T19:06:55.164Z,116.47
2024-02-02T19:09:24.088Z,116.23
2024-02-02T19:11:53.977Z,117.37
2024-02-02T19:14:22.962Z,116.67
2024-02-02T19:16:51.515Z,117.53
2024-02-02T19:19:21.931Z,119.53
2024-02-02T19:21:50.595Z,122.07
2024-02-02T19:24:19.172Z,113.87
2024-02-02T19:26:48.718Z,120.90
2024-02-02T19:29:18.512Z,120.23
2024-02-02T19:31:46.988Z,121.57
2024-02-02T19:34:15.553Z,115.37
2024-02-02T19:36:44.297Z,111.23
2024-02-02T19:39:13.447Z,120.10
2024-02-02T19:41:41.963Z,123.87
2024-02-02T19:44:10.379Z,114.93
2024-02-02T19:46:40.252Z,116.60
2024-02-02T19:49:11.452Z,118.73
2024-02-02T19:51:40.692Z,118.37
2024-02-02T19:54:09.173Z,117.17
2024-02-02T19:56:37.635Z,115.73
2024-02-02T19:59:06.099Z,110.10
2024-02-02T20:01:35.348Z,116.47
2024-02-02T20:04:05.553Z,115.20
2024-02-02T20:06:34.304Z,117.73
2024-02-02T20:09:02.829Z,113.53
2024-02-02T20:11:31.667Z,109.90
2024-02-02T20:14:00.256Z,112.27
2024-02-02T20:16:28.679Z,114.13
2024-02-02T20:18:57.183Z,114.37
2024-02-02T20:21:29.286Z,113.70
2024-02-02T20:23:58.004Z,125.13
2024-02-02T20:26:26.784Z,119.30
2024-02-02T20:28:56.974Z,116.83
2024-02-02T20:31:25.506Z,123.30
2024-02-02T20:33:54.429Z,112.73
2024-02-02T20:36:27.847Z,116.33
2024-02-02T20:38:57.681Z,117.30
2024-02-02T20:41:27.099Z,115.60
2024-02-02T20:43:56.831Z,116.43
2024-02-02T20:46:25.511Z,113.90
2024-02-02T20:48:54.135Z,114.43
2024-02-02T20:51:23.131Z,116.67
2024-02-02T20:53:51.684Z,115.57
2024-02-02T20:56:21.496Z,115.17
2024-02-02T20:58:49.962Z,121.33
2024-02-02T21:01:18.557Z,119.50
2024-02-02T21:03:47.273Z,120.93
2024-02-02T21:06:16.170Z,116.17
2024-02-02T21:08:45.425Z,117.23
2024-02-02T21:11:13.883Z,118.37
2024-02-02T21:13:45.297Z,117.13
2024-02-02T21:16:16.076Z,119.87
2024-02-02T21:18:44.655Z,124.63
2024-02-02T21:21:21.864Z,124.30
2024-02-02T21:23:51.098Z,118.70
2024-02-02T21:26:19.624Z,126.97
2024-02-02T21:28:50.492Z,121.87
2024-02-02T21:31:18.910Z,123.47
2024-02-02T21:33:47.486Z,118.37
2024-02-02T21:36:16.061Z,118.53
2024-02-02T21:38:44.546Z,119.57
2024-02-02T21:41:13.030Z,120.20
2024-02-02T21:43:41.474Z,121.20
2024-02-02T21:46:11.266Z,120.23
2024-02-02T21:48:39.879Z,122.73
2024-02-02T21:51:09.430Z,117.73
2024-02-02T21:53:37.895Z,118.03
2024-02-02T21:56:07.501Z,116.27
2024-02-02T21:58:35.939Z,119.20
2024-02-02T22:01:04.540Z,119.20
2024-02-02T22:03:34.522Z,119.73
2024-02-02T22:06:03.090Z,122.47
2024-02-02T22:08:31.643Z,109.83
2024-02-02T22:11:00.073Z,115.97
2024-02-02T22:13:28.560Z,107.03
2024-02-02T22:15:57.014Z,109.83
2024-02-02T22:18:25.669Z,110.90
2024-02-02T22:20:55.574Z,110.43
2024-02-02T22:23:24.004Z,107.50
2024-02-02T22:25:52.446Z,112.53
2024-02-02T22:28:21.076Z,109.33
2024-02-02T22:30:49.614Z,112.90
2024-02-02T22:33:18.214Z,110.40
2024-02-02T22:35:46.753Z,110.43
2024-02-02T22:38:17.085Z,114.07
2024-02-02T22:40:45.578Z,111.63
2024-02-02T22:43:13.995Z,117.60
2024-02-02T22:45:42.630Z,117.23
2024-02-02T22:48:11.274Z,120.23
2024-02-02T22:50:39.757Z,114.43
2024-02-02T22:53:08.197Z,120.23
2024-02-02T22:55:38.459Z,111.47
2024-02-02T22:58:07.152Z,119.10
2024-02-02T23:00:35.997Z,120.10
2024-02-02T23:03:05.586Z,123.77
2024-02-02T23:05:34.037Z,118.77
2024-02-02T23:08:02.456Z,121.10
2024-02-02T23:10:30.906Z,119.53
2024-02-02T23:13:00.738Z,126.10
2024-02-02T23:15:29.304Z,126.60
2024-02-02T23:17:57.868Z,123.83
2024-02-02T23:20:26.304Z,128.30
2024-02-02T23:22:54.705Z,136.17
2024-02-02T23:25:23.235Z,126.40
2024-02-02T23:27:53.676Z,136.17
2024-02-02T23:30:23.638Z,131.07
2024-02-02T23:32:52.192Z,134.77
2024-02-02T23:35:20.628Z,136.30
2024-02-02T23:37:49.144Z,133.03
2024-02-02T23:40:17.608Z,133.70
2024-02-02T23:42:46.141Z,133.07
2024-02-02T23:45:14.689Z,129.53
2024-02-02T23:47:44.504Z,138.17
2024-02-02T23:50:13.659Z,128.63
2024-02-02T23:52:42.237Z,131.17
2024-02-02T23:55:10.849Z,131.80
2024-02-02T23:57:39.611Z,131.70
